Time;durP1;ratioP1;P1;durP2;ratioP2;P2;SDS_P1;SDS_P2;PMS_P1;PMS_P2;Temp;Humidity;BMP_temperature;BMP_pressure;BME280_temperature;BME280_humidity;BME280_pressure;Samples;Min_cycle;Max_cycle;Signal;HPM_P1;HPM_P2
2021/11/17 02:27:22;;;;;;;104.90;37.58;;;8.40;99.90;;;;;;5064459;28;20189;-74
2021/11/17 02:30:06;;;;;;;97.03;36.97;;;8.30;99.90;;;;;;5091237;28;20247;-74
2021/11/17 02:32:48;;;;;;;104.47;39.25;;;8.20;99.90;;;;;;5095670;28;20308;-73
2021/11/17 02:35:26;;;;;;;101.90;37.75;;;8.20;99.90;;;;;;5087392;28;20334;-73
2021/11/17 02:38:17;;;;;;;109.70;39.97;;;8.20;99.90;;;;;;5086127;28;20217;-74
2021/11/17 02:41:02;;;;;;;110.95;38.65;;;8.10;99.90;;;;;;5045632;28;20245;-74
2021/11/17 02:44:13;;;;;;;104.88;39.88;;;8.10;99.90;;;;;;5103376;28;20217;-74
2021/11/17 02:47:07;;;;;;;111.25;39.85;;;8.10;99.90;;;;;;5039788;28;20684;-74
2021/11/17 02:49:48;;;;;;;103.03;39.20;;;8.10;99.90;;;;;;5052942;28;20193;-74
2021/11/17 02:52:23;;;;;;;107.25;39.85;;;8.10;99.90;;;;;;5068319;28;20189;-73
2021/11/17 02:55:00;;;;;;;111.32;40.78;;;8.10;99.90;;;;;;5102983;28;20296;-73
2021/11/17 02:57:44;;;;;;;108.65;40.60;;;8.10;99.90;;;;;;5102140;28;20210;-73
2021/11/17 03:00:29;;;;;;;115.80;40.20;;;8.20;99.90;;;;;;5103919;28;20193;-73
2021/11/17 03:03:29;;;;;;;108.75;41.75;;;8.20;99.90;;;;;;5085794;28;20220;-73
2021/11/17 03:06:01;;;;;;;112.97;41.42;;;8.20;99.90;;;;;;5082414;28;20280;-74
2021/11/17 03:08:43;;;;;;;105.28;40.70;;;8.20;99.90;;;;;;5085560;28;20193;-73
2021/11/17 03:11:28;;;;;;;106.03;41.08;;;8.20;99.90;;;;;;5083799;28;20220;-73
2021/11/17 03:14:26;;;;;;;119.78;42.70;;;8.20;99.90;;;;;;5080575;28;20192;-73
2021/11/17 03:16:58;;;;;;;103.05;38.75;;;8.20;99.90;;;;;;5080575;28;20192;-73
2021/11/17 03:19:49;;;;;;;97.55;38.47;;;8.20;99.90;;;;;;5102000;28;20737;-74
2021/11/17 03:22:36;;;;;;;98.75;39.38;;;8.20;99.90;;;;;;5079884;28;20653;-73
2021/11/17 03:25:21;;;;;;;103.97;39.53;;;8.20;99.90;;;;;;5099321;28;20711;-74
2021/11/17 03:28:17;;;;;;;103.35;39.92;;;8.20;99.90;;;;;;5084855;28;20185;-73
2021/11/17 03:31:09;;;;;;;99.45;39.28;;;8.20;99.90;;;;;;5036802;28;20265;-73
2021/11/17 03:33:43;;;;;;;101.53;38.92;;;8.20;99.90;;;;;;5100700;28;20187;-73
2021/11/17 03:36:16;;;;;;;99.15;39.53;;;8.20;99.90;;;;;;5102398;28;20230;-73
2021/11/17 03:39:06;;;;;;;105.05;38.95;;;8.30;99.90;;;;;;5086417;28;20634;-73
2021/11/17 03:41:48;;;;;;;104.03;45.10;;;8.30;99.90;;;;;;5101448;28;20428;-73
2021/11/17 03:44:29;;;;;;;101.63;44.80;;;8.80;99.90;;;;;;5069027;28;20503;-74
2021/11/17 03:46:54;;;;;;;99.88;45.00;;;9.10;99.90;;;;;;5101529;28;20408;-74
2021/11/17 03:49:39;;;;;;;96.88;43.88;;;9.40;99.90;;;;;;5102876;28;20411;-74
2021/11/17 03:52:16;;;;;;;96.13;43.90;;;9.40;99.90;;;;;;5098724;28;20489;-73
2021/11/17 03:55:00;;;;;;;95.22;39.25;;;9.50;99.90;;;;;;5083823;28;20189;-74
2021/11/17 03:57:40;;;;;;;98.90;39.03;;;9.20;99.90;;;;;;5096889;28;20172;-74
2021/11/17 04:00:46;;;;;;;91.88;39.38;;;8.90;99.90;;;;;;5102384;28;21338;-75
2021/11/17 04:03:19;;;;;;;89.40;37.75;;;8.80;99.90;;;;;;5103143;28;20297;-74
2021/11/17 04:06:14;;;;;;;87.85;36.33;;;8.70;99.90;;;;;;5100124;28;20189;-73
2021/11/17 04:08:42;;;;;;;91.43;36.42;;;8.60;99.90;;;;;;5074672;28;20212;-74
2021/11/17 04:11:25;;;;;;;95.03;38.53;;;8.60;99.90;;;;;;5100632;28;20213;-74
2021/11/17 04:14:15;;;;;;;90.00;35.55;;;8.50;99.90;;;;;;5084904;28;20201;-74
2021/11/17 04:17:05;;;;;;;91.25;35.83;;;8.50;99.90;;;;;;5082391;28;20177;-73
2021/11/17 04:19:49;;;;;;;96.90;37.20;;;8.40;99.90;;;;;;5082862;28;20185;-73
2021/11/17 04:22:33;;;;;;;92.00;36.28;;;8.40;99.90;;;;;;5082005;28;20188;-74
2021/11/17 04:25:24;;;;;;;90.55;37.78;;;8.40;99.90;;;;;;5102394;28;20181;-74
2021/11/17 04:28:11;;;;;;;93.78;38.40;;;8.40;99.90;;;;;;5085141;28;20205;-74
2021/11/17 04:30:55;;;;;;;100.93;39.70;;;8.40;99.90;;;;;;5085572;28;20208;-74
2021/11/17 04:33:38;;;;;;;100.68;37.45;;;8.40;99.90;;;;;;5090041;28;20940;-74
2021/11/17 04:36:16;;;;;;;97.45;37.25;;;8.30;99.90;;;;;;5086208;28;20181;-74
2021/11/17 04:38:45;;;;;;;99.38;38.75;;;8.40;99.90;;;;;;5107298;28;20751;-75
2021/11/17 04:41:46;;;;;;;101.70;38.70;;;8.40;99.90;;;;;;5086623;28;20289;-74
2021/11/17 04:44:28;;;;;;;98.00;38.15;;;8.40;99.90;;;;;;5089639;28;20658;-75
2021/11/17 04:47:02;;;;;;;105.50;40.13;;;8.40;99.90;;;;;;5072597;28;20192;-74
2021/11/17 04:49:34;;;;;;;105.68;39.95;;;8.40;99.90;;;;;;5088934;28;20208;-75
2021/11/17 04:52:34;;;;;;;108.90;40.13;;;8.40;99.90;;;;;;5100908;28;20655;-75
2021/11/17 04:55:20;;;;;;;105.90;39.60;;;8.40;99.90;;;;;;5084280;27;20268;-74
2021/11/17 04:58:14;;;;;;;104.25;40.55;;;8.40;99.90;;;;;;5102704;27;20846;-74
2021/11/17 05:00:55;;;;;;;107.30;40.75;;;8.40;99.90;;;;;;5076027;28;20197;-74
2021/11/17 05:03:30;;;;;;;110.13;40.25;;;8.40;99.90;;;;;;5071121;28;20300;-75
2021/11/17 05:06:05;;;;;;;111.50;46.70;;;8.50;99.90;;;;;;5082014;27;20927;-73
2021/11/17 05:08:48;;;;;;;108.10;46.87;;;9.00;99.90;;;;;;5079151;28;20461;-75
2021/11/17 05:11:38;;;;;;;107.35;45.00;;;9.30;99.90;;;;;;5070514;28;20412;-75
2021/11/17 05:14:13;;;;;;;113.28;46.75;;;9.60;99.90;;;;;;5088123;28;20864;-74
2021/11/17 05:17:02;;;;;;;109.53;47.17;;;9.70;99.90;;;;;;5080955;28;20768;-74
2021/11/17 05:19:42;;;;;;;101.75;44.97;;;9.80;99.90;;;;;;5103401;28;20416;-76
2021/11/17 05:23:04;;;;;;;108.80;46.55;;;9.90;99.90;;;;;;5099996;28;20412;-76
2021/11/17 05:25:39;;;;;;;104.97;44.97;;;9.90;99.90;;;;;;5072370;28;21033;-74
2021/11/17 05:28:07;;;;;;;109.47;46.58;;;10.00;99.90;;;;;;5086589;28;20422;-75
2021/11/17 05:30:36;;;;;;;111.63;47.72;;;10.00;99.90;;;;;;5096653;28;20884;-74
2021/11/17 05:33:29;;;;;;;111.40;46.17;;;10.00;99.90;;;;;;5085877;28;20848;-74
2021/11/17 05:36:14;;;;;;;115.20;47.30;;;10.00;99.90;;;;;;5072049;28;21062;-74
2021/11/17 05:39:01;;;;;;;115.82;48.33;;;10.10;99.90;;;;;;5096342;28;20436;-77
2021/11/17 05:41:35;;;;;;;112.55;47.67;;;10.10;99.90;;;;;;5068849;28;20460;-75
2021/11/17 05:44:07;;;;;;;109.88;46.15;;;10.10;99.90;;;;;;5070853;28;20444;-76
2021/11/17 05:46:39;;;;;;;108.97;47.03;;;10.10;99.90;;;;;;5096610;28;20421;-76
2021/11/17 05:49:26;;;;;;;114.83;48.27;;;10.10;99.90;;;;;;5062528;28;20422;-76
2021/11/17 05:52:06;;;;;;;117.75;48.22;;;10.20;99.90;;;;;;5083023;28;20411;-75
2021/11/17 05:54:59;;;;;;;107.22;41.40;;;10.20;99.90;;;;;;5064305;28;20186;-75
2021/11/17 05:57:53;;;;;;;110.00;40.47;;;9.70;99.90;;;;;;5089421;28;20192;-75
2021/11/17 06:00:34;;;;;;;125.57;41.58;;;9.40;99.90;;;;;;5072296;28;20189;-75
2021/11/17 06:03:26;;;;;;;120.57;42.95;;;9.30;99.90;;;;;;5099209;28;20272;-75
2021/11/17 06:05:52;;;;;;;119.15;41.42;;;9.10;99.90;;;;;;5086004;28;20662;-76
2021/11/17 06:08:17;;;;;;;108.93;41.88;;;9.10;99.90;;;;;;5103439;28;20192;-77
2021/11/17 06:10:46;;;;;;;123.80;42.90;;;9.00;99.90;;;;;;5097318;28;20205;-75
2021/11/17 06:13:13;;;;;;;125.00;44.05;;;9.00;99.90;;;;;;5076890;28;20192;-75
2021/11/17 06:15:40;;;;;;;126.97;44.80;;;9.00;99.90;;;;;;5083773;28;20642;-75
2021/11/17 06:18:08;;;;;;;124.03;44.08;;;8.90;99.90;;;;;;5084029;28;20185;-75
2021/11/17 06:20:36;;;;;;;137.63;45.17;;;8.90;99.90;;;;;;5098597;28;20646;-74
2021/11/17 06:23:07;;;;;;;130.80;43.90;;;8.90;99.90;;;;;;5084086;28;20198;-74
2021/11/17 06:25:36;;;;;;;113.93;43.08;;;8.90;99.90;;;;;;5101313;28;20190;-75
2021/11/17 06:28:04;;;;;;;129.82;46.15;;;8.90;99.90;;;;;;5072299;28;20190;-76
2021/11/17 06:30:34;;;;;;;159.70;55.65;;;8.90;99.90;;;;;;5099083;28;20415;-75
2021/11/17 06:33:00;;;;;;;143.30;47.50;;;9.30;99.90;;;;;;5096845;28;20687;-74
2021/11/17 06:35:26;;;;;;;141.73;46.67;;;9.30;99.90;;;;;;5094928;28;20181;-75
2021/11/17 06:37:52;;;;;;;140.50;46.35;;;9.20;99.90;;;;;;5082760;28;20540;-74
2021/11/17 06:40:19;;;;;;;132.95;45.53;;;9.10;99.90;;;;;;5101761;28;20776;-76
2021/11/17 06:42:48;;;;;;;140.93;46.17;;;9.10;99.90;;;;;;5102226;28;20189;-73
2021/11/17 06:45:23;;;;;;;135.07;45.17;;;9.10;99.90;;;;;;5102165;28;20186;-74
2021/11/17 06:47:50;;;;;;;132.18;44.80;;;9.00;99.90;;;;;;5095806;28;20181;-74
2021/11/17 06:50:17;;;;;;;139.95;44.58;;;9.00;99.90;;;;;;5096224;28;20194;-76
2021/11/17 06:52:43;;;;;;;131.18;43.53;;;9.00;99.90;;;;;;5099769;28;20215;-75
2021/11/17 06:55:09;;;;;;;145.63;46.53;;;9.00;99.90;;;;;;5097806;28;20227;-76
2021/11/17 06:57:35;;;;;;;149.27;47.33;;;9.00;99.90;;;;;;5092476;28;20188;-75
2021/11/17 07:00:04;;;;;;;135.52;45.75;;;9.00;99.90;;;;;;5086532;28;20562;-77
2021/11/17 07:02:29;;;;;;;144.57;46.85;;;9.00;99.90;;;;;;5082659;28;20186;-75
2021/11/17 07:04:55;;;;;;;147.88;46.17;;;9.00;99.90;;;;;;5066502;28;20613;-76
2021/11/17 07:07:21;;;;;;;144.50;46.95;;;9.00;99.90;;;;;;5102624;28;20189;-76
2021/11/17 07:09:46;;;;;;;140.82;46.33;;;9.10;99.90;;;;;;5087007;28;20174;-77
2021/11/17 07:12:13;;;;;;;166.07;48.50;;;9.10;99.90;;;;;;5103262;28;20300;-76
2021/11/17 07:14:39;;;;;;;143.30;46.38;;;9.10;99.90;;;;;;5097123;28;20681;-75
2021/11/17 07:17:05;;;;;;;139.15;44.92;;;9.10;99.90;;;;;;5098912;28;20181;-77
2021/11/17 07:19:31;;;;;;;147.52;47.05;;;9.10;99.90;;;;;;5099906;28;20223;-76
2021/11/17 07:22:01;;;;;;;151.82;45.75;;;9.10;99.90;;;;;;5078207;28;20230;-77
2021/11/17 07:24:28;;;;;;;152.90;46.63;;;9.10;99.90;;;;;;5064034;28;20215;-76
2021/11/17 07:26:54;;;;;;;148.90;46.45;;;9.10;99.90;;;;;;5094315;28;20196;-76
2021/11/17 07:29:20;;;;;;;150.45;46.78;;;9.20;99.90;;;;;;5085361;28;20190;-76
2021/11/17 07:31:47;;;;;;;148.52;45.75;;;9.20;99.90;;;;;;5101173;28;20299;-75
2021/11/17 07:34:12;;;;;;;160.18;47.03;;;9.20;99.90;;;;;;5099017;28;20177;-75
2021/11/17 07:36:40;;;;;;;141.93;45.63;;;9.20;99.90;;;;;;5081406;28;20185;-76
2021/11/17 07:39:08;;;;;;;157.50;47.33;;;9.20;99.90;;;;;;5101743;28;20794;-76
2021/11/17 07:41:34;;;;;;;159.65;45.95;;;9.30;99.90;;;;;;5098593;28;20233;-76
2021/11/17 07:44:02;;;;;;;146.13;45.88;;;9.30;99.90;;;;;;5104929;28;20189;-77
2021/11/17 07:46:27;;;;;;;148.10;44.13;;;9.30;99.90;;;;;;5075561;28;20197;-76
2021/11/17 07:48:53;;;;;;;147.35;43.33;;;9.30;99.90;;;;;;5080837;28;20268;-74
2021/11/17 07:51:19;;;;;;;143.63;44.28;;;9.40;99.90;;;;;;5075824;28;20217;-75
2021/11/17 07:53:44;;;;;;;152.90;43.78;;;9.40;99.90;;;;;;5079510;28;20235;-75
2021/11/17 07:56:13;;;;;;;143.18;43.53;;;9.50;99.90;;;;;;5098136;28;20205;-75
2021/11/17 07:58:41;;;;;;;134.95;43.22;;;9.50;99.90;;;;;;5095699;28;20189;-75
2021/11/17 08:01:09;;;;;;;117.97;38.92;;;9.50;99.90;;;;;;5093283;28;20276;-75
2021/11/17 08:03:38;;;;;;;129.30;40.42;;;9.50;99.90;;;;;;5096064;28;20188;-76
2021/11/17 08:06:05;;;;;;;135.35;42.47;;;9.60;99.90;;;;;;5076931;28;20189;-76
2021/11/17 08:08:31;;;;;;;135.32;42.78;;;9.60;99.90;;;;;;5102666;28;20600;-74
2021/11/17 08:10:59;;;;;;;143.02;42.63;;;9.60;99.90;;;;;;5099200;28;20211;-75
2021/11/17 08:13:26;;;;;;;136.07;42.63;;;9.70;99.90;;;;;;5101045;28;20710;-75
2021/11/17 08:15:52;;;;;;;135.73;40.42;;;9.60;99.90;;;;;;5085051;28;20193;-74
2021/11/17 08:18:18;;;;;;;104.18;34.15;;;9.70;99.90;;;;;;5091766;28;20528;-74
2021/11/17 08:20:44;;;;;;;54.28;20.67;;;9.70;99.90;;;;;;5103776;28;20186;-74
2021/11/17 08:23:09;;;;;;;46.28;17.45;;;9.80;99.90;;;;;;5084449;28;20916;-74
2021/11/17 08:25:38;;;;;;;39.53;15.88;;;9.80;99.90;;;;;;5107773;28;20657;-75
2021/11/17 08:28:09;;;;;;;38.17;12.93;;;10.00;99.90;;;;;;5081635;28;20778;-74
2021/11/17 08:30:35;;;;;;;26.10;9.30;;;10.50;99.90;;;;;;5102530;28;20420;-76
2021/11/17 08:33:02;;;;;;;20.10;7.85;;;10.90;99.90;;;;;;5103042;28;20417;-76
2021/11/17 08:35:29;;;;;;;25.83;7.10;;;11.20;99.90;;;;;;5104763;28;20439;-74
2021/11/17 08:37:56;;;;;;;19.67;6.20;;;11.30;99.90;;;;;;5081688;28;20194;-75
2021/11/17 08:40:27;;;;;;;24.00;6.20;;;11.10;99.90;;;;;;5084611;28;20237;-75
2021/11/17 08:42:53;;;;;;;25.30;6.30;;;11.00;99.90;;;;;;5080128;28;20621;-76
2021/11/17 08:45:20;;;;;;;22.23;5.07;;;10.80;99.90;;;;;;5107033;28;20624;-77
2021/11/17 08:47:46;;;;;;;24.50;5.32;;;10.80;99.90;;;;;;5099920;28;20196;-76
2021/11/17 08:50:15;;;;;;;24.58;4.88;;;10.80;99.90;;;;;;5077981;28;20196;-75
2021/11/17 08:52:41;;;;;;;26.27;4.68;;;10.80;99.90;;;;;;5101391;28;20582;-75
2021/11/17 08:55:09;;;;;;;23.10;3.95;;;10.80;99.90;;;;;;5081269;28;20287;-75
2021/11/17 08:57:36;;;;;;;22.63;3.42;;;10.70;99.90;;;;;;5105164;28;20574;-76
2021/11/17 09:00:05;;;;;;;22.08;3.70;;;10.70;99.90;;;;;;5099932;28;20272;-74
2021/11/17 09:02:31;;;;;;;17.67;3.55;;;10.70;99.90;;;;;;5100501;28;20541;-74
2021/11/17 09:04:57;;;;;;;22.77;4.65;;;10.70;99.90;;;;;;5088017;28;20177;-74
2021/11/17 09:07:22;;;;;;;23.63;3.50;;;10.70;99.90;;;;;;5099614;28;20174;-73
2021/11/17 09:09:48;;;;;;;19.75;3.42;;;10.70;99.90;;;;;;5078283;28;20253;-72
2021/11/17 09:12:14;;;;;;;13.00;2.95;;;10.70;99.90;;;;;;5079140;28;20238;-72
2021/11/17 09:14:39;;;;;;;18.45;2.90;;;10.70;99.90;;;;;;5086348;28;20177;-73
2021/11/17 09:17:06;;;;;;;20.98;4.07;;;10.70;99.90;;;;;;5104938;28;20186;-73
2021/11/17 09:19:31;;;;;;;16.90;3.30;;;10.80;99.90;;;;;;5100237;28;20181;-73
2021/11/17 09:21:57;;;;;;;20.55;3.25;;;10.70;99.90;;;;;;5099317;28;20242;-73
2021/11/17 09:24:23;;;;;;;16.25;3.05;;;10.80;99.90;;;;;;5098010;28;20241;-73
2021/11/17 09:26:52;;;;;;;17.05;3.25;;;10.80;99.90;;;;;;5100598;28;20192;-72
2021/11/17 09:29:18;;;;;;;19.92;3.05;;;10.80;99.90;;;;;;5102001;28;20217;-73
2021/11/17 09:31:46;;;;;;;19.90;3.35;;;10.80;99.90;;;;;;5097700;28;20247;-73
2021/11/17 09:34:14;;;;;;;12.40;3.03;;;10.80;99.90;;;;;;5078916;28;20650;-73
2021/11/17 09:36:41;;;;;;;21.00;3.50;;;10.80;99.90;;;;;;5102055;28;20412;-73
2021/11/17 09:39:10;;;;;;;18.58;3.42;;;11.30;99.90;;;;;;5084701;28;20428;-72
2021/11/17 09:41:45;;;;;;;18.80;3.47;;;11.70;99.90;;;;;;5084066;28;20475;-73
2021/11/17 09:44:18;;;;;;;15.07;3.38;;;11.90;99.90;;;;;;5105956;28;20399;-74
2021/11/17 09:46:46;;;;;;;22.48;3.20;;;12.00;99.90;;;;;;5099424;28;20581;-73
2021/11/17 09:49:22;;;;;;;16.00;2.90;;;11.80;99.90;;;;;;5112235;27;20188;-73
2021/11/17 09:51:52;;;;;;;17.65;3.58;;;11.60;99.90;;;;;;5105554;28;20217;-73
2021/11/17 09:54:39;;;;;;;15.60;3.38;;;11.50;99.90;;;;;;5100697;28;20207;-73
2021/11/17 09:57:28;;;;;;;21.65;3.10;;;11.40;99.90;;;;;;5101467;28;20547;-74
2021/11/17 09:59:57;;;;;;;22.23;3.42;;;11.40;99.90;;;;;;5104565;28;20185;-74
2021/11/17 10:02:58;;;;;;;22.58;2.88;;;11.40;99.90;;;;;;5083369;28;20201;-74
2021/11/17 10:14:18;;;;;;;17.92;2.83;;;11.40;99.90;;;;;;5097574;28;20190;-74
2021/11/17 10:16:44;;;;;;;20.75;3.58;;;11.40;99.90;;;;;;5100116;28;20503;-74
2021/11/17 10:19:26;;;;;;;21.03;3.23;;;11.90;99.90;;;;;;5104034;28;20477;-74
2021/11/17 10:22:00;;;;;;;23.13;3.38;;;12.30;99.90;;;;;;5099362;28;20621;-75
2021/11/17 10:24:40;;;;;;;21.55;3.65;;;12.40;99.90;;;;;;5098349;28;20411;-74
2021/11/17 10:27:06;;;;;;;18.45;3.33;;;12.50;99.90;;;;;;5098931;28;20408;-75
2021/11/17 10:29:42;;;;;;;22.00;3.40;;;12.60;99.90;;;;;;5083710;28;20420;-74
2021/11/17 10:32:14;;;;;;;19.08;3.42;;;12.70;99.90;;;;;;5100220;28;20419;-75
2021/11/17 10:34:58;;;;;;;26.38;4.28;;;12.80;99.90;;;;;;5101907;28;20924;-75
2021/11/17 10:37:34;;;;;;;19.63;3.43;;;12.90;99.90;;;;;;5097654;28;20445;-75
2021/11/17 10:40:20;;;;;;;22.73;3.92;;;13.20;99.90;;;;;;5080419;28;20479;-76
2021/11/17 10:43:02;;;;;;;23.50;4.93;;;13.40;99.90;;;;;;5099049;28;20925;-75
2021/11/17 10:45:39;;;;;;;22.42;4.25;;;13.60;99.90;;;;;;5087674;28;20457;-75
2021/11/17 10:48:17;;;;;;;24.50;4.37;;;14.10;99.90;;;;;;5101663;28;20431;-76
2021/11/17 10:50:43;;;;;;;25.48;4.50;;;15.00;98.90;;;;;;5098322;28;20451;-77
2021/11/17 10:53:15;;;;;;;26.52;4.72;;;16.00;96.40;;;;;;5069001;28;20880;-77
2021/11/17 10:55:48;;;;;;;24.33;4.70;;;17.00;94.10;;;;;;5081951;28;20400;-75
2021/11/17 10:58:20;;;;;;;26.57;4.77;;;17.80;91.20;;;;;;5092925;28;20876;-74
2021/11/17 11:00:55;;;;;;;23.20;4.13;;;18.50;88.40;;;;;;5067527;28;20420;-75
2021/11/17 11:03:22;;;;;;;24.08;4.43;;;19.10;84.80;;;;;;5069098;28;20423;-72
2021/11/17 11:05:52;;;;;;;22.48;4.10;;;19.40;81.80;;;;;;5096854;28;20925;-72
2021/11/17 11:08:26;;;;;;;24.98;4.30;;;19.50;80.80;;;;;;5095633;28;20847;-74
2021/11/17 11:10:56;;;;;;;27.08;4.97;;;19.40;81.00;;;;;;5095869;28;20908;-74
2021/11/17 11:13:41;;;;;;;26.05;4.22;;;19.10;80.80;;;;;;5105011;28;20769;-76
2021/11/17 11:16:25;;;;;;;27.43;4.93;;;18.60;83.50;;;;;;5074372;28;20404;-74
2021/11/17 11:18:53;;;;;;;22.70;4.07;;;18.50;82.90;;;;;;5096878;28;21372;-75
2021/11/17 11:21:42;;;;;;;23.47;4.10;;;18.60;82.70;;;;;;5100687;28;20888;-76
2021/11/17 11:24:27;;;;;;;27.40;4.30;;;18.80;81.70;;;;;;5112997;27;20804;-74
2021/11/17 11:26:59;;;;;;;27.40;4.43;;;19.10;80.60;;;;;;5095812;28;20490;-74
2021/11/17 11:29:29;;;;;;;25.80;4.70;;;19.20;78.50;;;;;;5100604;28;20449;-76
2021/11/17 11:31:57;;;;;;;27.45;4.53;;;19.00;78.40;;;;;;5099806;28;20428;-75
2021/11/17 11:34:40;;;;;;;27.88;4.55;;;18.70;79.40;;;;;;5064339;28;20423;-73
2021/11/17 11:37:23;;;;;;;27.75;4.70;;;18.40;80.90;;;;;;5095054;28;20520;-73
2021/11/17 11:40:04;;;;;;;26.63;4.53;;;18.20;83.50;;;;;;5091262;28;20415;-74
2021/11/17 11:43:07;;;;;;;25.30;4.32;;;18.40;84.10;;;;;;5098194;28;20411;-76
2021/11/17 11:45:46;;;;;;;28.35;5.55;;;18.60;82.20;;;;;;5080530;28;20445;-74
2021/11/17 11:48:23;;;;;;;22.95;4.25;;;18.50;80.60;;;;;;5071991;28;20506;-74
2021/11/17 11:51:21;;;;;;;22.55;3.95;;;18.60;81.90;;;;;;5098868;28;20427;-74
2021/11/17 11:54:08;;;;;;;22.08;3.83;;;18.60;80.60;;;;;;5069510;28;20419;-72
2021/11/17 11:56:48;;;;;;;26.50;4.03;;;18.60;79.80;;;;;;5099731;28;20407;-74
2021/11/17 11:59:18;;;;;;;21.70;3.80;;;18.80;79.70;;;;;;5099691;28;20404;-73
2021/11/17 12:01:44;;;;;;;25.55;4.25;;;18.80;78.70;;;;;;5084915;28;20404;-74
2021/11/17 12:04:23;;;;;;;21.33;4.07;;;18.60;78.90;;;;;;5085624;28;20546;-74
2021/11/17 12:06:58;;;;;;;21.05;3.75;;;18.40;79.30;;;;;;5073586;28;20415;-72
2021/11/17 12:09:33;;;;;;;24.10;4.13;;;18.20;79.30;;;;;;5101552;28;20816;-73
2021/11/17 12:12:03;;;;;;;19.75;3.70;;;18.00;80.50;;;;;;5099534;28;20429;-75
2021/11/17 12:14:35;;;;;;;26.48;4.03;;;17.80;80.70;;;;;;5078937;28;20443;-74
2021/11/17 12:17:01;;;;;;;24.60;4.07;;;17.50;80.50;;;;;;5099110;28;20442;-76
2021/11/17 12:19:32;;;;;;;21.40;3.58;;;17.30;82.10;;;;;;5095527;28;20770;-75
2021/11/17 12:22:03;;;;;;;23.33;3.70;;;17.10;82.80;;;;;;5085283;28;20400;-76
2021/11/17 12:24:33;;;;;;;20.77;3.95;;;17.10;83.40;;;;;;5105247;28;20914;-76
2021/11/17 12:27:12;;;;;;;18.83;3.50;;;17.40;83.90;;;;;;5102338;28;20414;-75
2021/11/17 12:29:52;;;;;;;16.33;2.95;;;17.70;81.20;;;;;;5075075;28;20432;-74
2021/11/17 12:32:30;;;;;;;16.45;2.83;;;18.00;75.40;;;;;;5099076;28;20911;-76
2021/11/17 12:34:56;;;;;;;18.65;3.40;;;18.10;72.80;;;;;;5080964;28;20457;-75
2021/11/17 12:37:37;;;;;;;17.60;3.07;;;18.20;72.50;;;;;;5087390;28;20400;-75
2021/11/17 12:40:19;;;;;;;22.58;3.20;;;18.30;73.40;;;;;;5097474;28;20420;-75
2021/11/17 12:42:55;;;;;;;15.82;3.10;;;18.30;74.40;;;;;;5078288;28;20480;-75
2021/11/17 12:45:27;;;;;;;15.77;3.22;;;18.20;74.00;;;;;;5096882;28;20398;-74
2021/11/17 12:48:20;;;;;;;21.85;3.38;;;18.20;74.50;;;;;;5101996;28;20404;-76
2021/11/17 12:50:52;;;;;;;17.67;3.42;;;18.20;72.50;;;;;;5090836;28;20400;-76
2021/11/17 12:53:23;;;;;;;16.10;3.40;;;18.20;71.90;;;;;;5089119;28;20412;-76
2021/11/17 12:55:53;;;;;;;16.30;3.28;;;18.10;73.60;;;;;;5101709;28;20903;-75
2021/11/17 12:58:45;;;;;;;16.67;3.05;;;18.20;73.30;;;;;;5105036;28;20403;-77
2021/11/17 13:01:10;;;;;;;17.60;3.20;;;18.40;74.40;;;;;;5103427;28;20406;-76
2021/11/17 13:03:47;;;;;;;22.43;3.23;;;18.50;72.20;;;;;;5083296;28;20405;-76
2021/11/17 13:06:28;;;;;;;17.95;3.70;;;18.50;71.30;;;;;;5105931;28;20762;-75
2021/11/17 13:09:15;;;;;;;19.45;3.40;;;18.60;72.60;;;;;;5103722;28;20464;-76
2021/11/17 13:12:12;;;;;;;17.48;3.08;;;18.60;70.60;;;;;;5102044;28;20969;-75
2021/11/17 13:14:43;;;;;;;19.63;3.10;;;18.60;69.30;;;;;;5103395;28;20400;-75
2021/11/17 13:17:11;;;;;;;18.52;3.00;;;18.50;69.40;;;;;;5100796;28;20477;-74
2021/11/17 13:19:50;;;;;;;15.02;2.97;;;18.50;69.60;;;;;;5106352;28;20396;-76
2021/11/17 13:22:25;;;;;;;13.07;2.67;;;18.50;69.50;;;;;;5094561;28;20404;-74
2021/11/17 13:25:11;;;;;;;14.32;2.80;;;18.40;68.10;;;;;;5072467;28;20812;-73
2021/11/17 13:27:45;;;;;;;14.82;2.80;;;18.40;67.90;;;;;;5082310;28;20491;-74
2021/11/17 13:30:36;;;;;;;16.00;2.90;;;18.30;69.40;;;;;;5098508;28;20912;-72
2021/11/17 13:33:30;;;;;;;13.45;2.83;;;18.30;69.20;;;;;;5100115;28;20405;-73
2021/11/17 13:36:11;;;;;;;12.20;2.55;;;18.20;69.80;;;;;;5101513;28;20400;-73
2021/11/17 13:38:58;;;;;;;13.53;2.57;;;18.10;69.50;;;;;;5081363;28;20425;-73
2021/11/17 13:41:24;;;;;;;14.32;2.95;;;17.90;69.00;;;;;;5099404;28;20416;-73
2021/11/17 13:43:50;;;;;;;16.13;2.90;;;17.70;69.40;;;;;;5105992;28;20410;-73
2021/11/17 13:46:18;;;;;;;15.27;3.20;;;17.40;71.30;;;;;;5099902;28;20404;-74
2021/11/17 13:48:45;;;;;;;21.35;3.22;;;17.10;73.40;;;;;;5100652;28;20518;-74
2021/11/17 13:51:12;;;;;;;;;;;16.90;74.70;;;;;;5104272;28;20088;-74
2021/11/17 13:53:38;;;;;;;;;;;16.20;76.30;;;;;;5083754;28;19947;-73
2021/11/17 13:56:12;;;;;;;;;;;15.70;78.40;;;;;;5105478;28;19912;-73
2021/11/17 13:58:37;;;;;;;;;;;15.50;79.90;;;;;;5099120;28;19990;-74
2021/11/17 14:01:03;;;;;;;;;;;15.20;81.70;;;;;;5100029;28;20065;-75
2021/11/17 14:03:31;;;;;;;;;;;15.10;82.10;;;;;;5106720;28;20065;-73
2021/11/17 14:06:02;;;;;;;;;;;15.00;82.60;;;;;;5106763;28;19915;-73
2021/11/17 14:08:28;;;;;;;;;;;15.00;82.90;;;;;;5099317;28;20328;-73
2021/11/17 14:10:54;;;;;;;;;;;14.80;83.10;;;;;;5106233;28;19922;-73
2021/11/17 14:13:19;;;;;;;;;;;14.80;83.70;;;;;;5084022;28;19918;-74
2021/11/17 14:15:45;;;;;;;;;;;14.80;84.00;;;;;;5107188;28;20427;-74
2021/11/17 14:18:11;;;;;;;;;;;14.80;84.60;;;;;;5094702;28;19916;-74
2021/11/17 14:20:36;;;;;;;;;;;14.80;84.20;;;;;;5099160;28;19915;-74
2021/11/17 14:23:02;;;;;;;;;;;14.70;85.10;;;;;;5081944;28;19912;-72
2021/11/17 14:25:28;;;;;;;;;;;14.70;84.40;;;;;;5088763;28;19912;-73
2021/11/17 14:27:59;;;;;;;;;;;14.60;85.00;;;;;;5097857;28;19908;-74
2021/11/17 14:30:27;;;;;;;;;;;14.50;84.90;;;;;;5100255;28;20657;-74
2021/11/17 14:32:53;;;;;;;;;;;14.40;85.20;;;;;;5097429;28;19934;-73
2021/11/17 14:35:20;;;;;;;;;;;14.30;85.90;;;;;;5102825;28;19912;-74
2021/11/17 14:37:45;;;;;;;;;;;14.20;85.50;;;;;;5086937;28;19919;-73
2021/11/17 14:40:12;;;;;;;;;;;14.10;86.70;;;;;;5083983;28;19924;-73
2021/11/17 14:42:38;;;;;;;;;;;14.10;87.00;;;;;;5076369;28;19912;-73
2021/11/17 14:45:06;;;;;;;;;;;14.00;87.10;;;;;;5084436;28;19908;-74
2021/11/17 14:47:31;;;;;;;;;;;13.90;87.40;;;;;;5072843;28;20083;-74
2021/11/17 14:49:57;;;;;;;;;;;13.90;87.50;;;;;;5079016;28;19978;-74
2021/11/17 14:52:23;;;;;;;;;;;13.80;87.60;;;;;;5080300;28;20298;-74
2021/11/17 14:54:49;;;;;;;;;;;13.70;87.30;;;;;;5078657;28;19909;-74
2021/11/17 14:57:14;;;;;;;;;;;13.60;87.70;;;;;;5081050;28;20037;-74
2021/11/17 14:59:40;;;;;;;;;;;13.50;88.60;;;;;;5080908;28;19995;-73
2021/11/17 15:02:06;;;;;;;;;;;13.40;88.40;;;;;;5076529;28;19919;-73
2021/11/17 15:04:35;;;;;;;;;;;13.30;88.60;;;;;;5075723;28;19955;-74
2021/11/17 15:07:01;;;;;;;;;;;13.30;89.00;;;;;;5083148;28;20041;-74
2021/11/17 15:09:27;;;;;;;;;;;13.20;89.20;;;;;;5075806;28;19912;-73
2021/11/17 15:11:58;;;;;;;;;;;13.10;89.70;;;;;;5082764;28;19938;-74
2021/11/17 15:14:25;;;;;;;;;;;13.10;90.00;;;;;;5081163;28;19919;-73
2021/11/17 15:16:51;;;;;;;;;;;13.00;90.10;;;;;;5080859;28;19934;-75
2021/11/17 15:19:17;;;;;;;19.88;2.58;;;13.00;90.50;;;;;;5076810;28;20180;-75
2021/11/17 15:21:43;;;;;;;25.30;3.28;;;12.90;90.00;;;;;;5070593;28;20888;-75
2021/11/17 15:24:09;;;;;;;20.15;3.35;;;13.50;91.60;;;;;;5078761;28;20927;-73
2021/11/17 15:26:47;;;;;;;21.87;3.50;;;13.80;91.40;;;;;;5081183;28;20412;-73
2021/11/17 15:29:13;;;;;;;22.02;4.00;;;14.00;91.10;;;;;;5076547;28;20411;-75
2021/11/17 15:31:39;;;;;;;19.35;3.90;;;14.10;91.10;;;;;;5080024;28;20930;-75
2021/11/17 15:34:05;;;;;;;22.80;3.78;;;14.20;91.10;;;;;;5081182;28;20453;-75
2021/11/17 15:36:31;;;;;;;21.70;3.53;;;14.30;91.10;;;;;;5078612;28;20412;-75
2021/11/17 15:38:57;;;;;;;21.42;3.70;;;14.30;91.10;;;;;;5075486;28;20399;-75
2021/11/17 15:41:26;;;;;;;15.50;3.43;;;14.30;91.20;;;;;;5090102;28;21049;-75
2021/11/17 15:43:52;;;;;;;21.95;4.25;;;14.20;91.00;;;;;;5100974;28;20418;-75
2021/11/17 15:46:19;;;;;;;20.33;3.70;;;14.20;91.20;;;;;;5094649;28;20412;-75
2021/11/17 15:48:44;;;;;;;22.33;3.60;;;14.10;91.20;;;;;;5100937;28;20412;-75
2021/11/17 15:51:17;;;;;;;15.77;2.88;;;14.10;90.90;;;;;;5080687;28;20554;-76
2021/11/17 15:53:44;;;;;;;14.23;2.72;;;14.00;90.60;;;;;;5077141;28;20425;-77